createdAt,value
2019-02-19T00:02:14.924Z,31.10
2019-02-19T00:04:45.846Z,33.40
2019-02-19T00:07:16.570Z,29.33
2019-02-19T00:09:48.090Z,32.27
2019-02-19T00:12:21.776Z,32.20
2019-02-19T00:14:52.213Z,33.70
2019-02-19T00:17:23.007Z,28.93
2019-02-19T00:19:53.652Z,30.67
2019-02-19T00:22:24.892Z,32.47
2019-02-19T00:24:55.599Z,31.70
2019-02-19T00:27:26.334Z,30.33
2019-02-19T00:29:57.010Z,32.17
2019-02-19T00:32:27.720Z,28.00
2019-02-19T00:34:58.469Z,27.03
2019-02-19T00:37:29.230Z,30.00
2019-02-19T00:39:59.998Z,27.77
2019-02-19T00:42:30.827Z,26.97
2019-02-19T00:45:02.136Z,24.03
2019-02-19T00:47:34.131Z,28.57
2019-02-19T00:50:05.659Z,27.20
2019-02-19T00:52:37.061Z,25.93
2019-02-19T00:55:12.549Z,30.67
2019-02-19T00:57:44.658Z,26.23
2019-02-19T01:00:15.876Z,32.03
2019-02-19T01:02:46.554Z,23.70
2019-02-19T01:05:17.309Z,25.70
2019-02-19T01:07:48.817Z,23.33
2019-02-19T01:10:19.482Z,27.77
2019-02-19T01:12:50.676Z,27.57
2019-02-19T01:15:25.412Z,25.83
2019-02-19T01:17:53.725Z,27.83
2019-02-19T01:20:24.634Z,27.77
2019-02-19T01:22:55.495Z,29.90
2019-02-19T01:25:26.240Z,27.00
2019-02-19T01:27:57.000Z,25.37
2019-02-19T01:30:27.663Z,23.17
2019-02-19T01:32:58.311Z,22.33
2019-02-19T01:35:29.256Z,21.57
2019-02-19T01:37:59.934Z,28.17
2019-02-19T01:40:30.610Z,22.53
2019-02-19T01:43:01.335Z,26.77
2019-02-19T01:45:34.087Z,24.40
2019-02-19T01:48:04.406Z,23.80
2019-02-19T01:50:35.111Z,23.87
2019-02-19T01:53:05.792Z,26.13
2019-02-19T01:55:36.496Z,22.57
2019-02-19T01:58:07.177Z,30.40
2019-02-19T02:00:38.274Z,28.43
2019-02-19T02:03:08.902Z,27.47
2019-02-19T02:05:40.332Z,24.73
2019-02-19T02:08:11.165Z,25.03
2019-02-19T02:10:42.249Z,23.97
2019-02-19T02:13:12.942Z,23.60
2019-02-19T02:15:45.492Z,24.23
2019-02-19T02:18:16.183Z,24.13
2019-02-19T02:20:46.887Z,26.80
2019-02-19T02:23:17.622Z,25.73
2019-02-19T02:25:48.303Z,22.90
2019-02-19T02:28:19.112Z,23.90
2019-02-19T02:30:51.902Z,24.70
2019-02-19T02:33:22.586Z,26.63
2019-02-19T02:35:53.269Z,23.43
2019-02-19T02:38:23.975Z,25.23
2019-02-19T02:40:55.157Z,24.00
2019-02-19T02:43:25.934Z,25.53
2019-02-19T02:45:56.639Z,28.47
2019-02-19T02:48:27.341Z,24.80
2019-02-19T02:51:00.003Z,24.53
2019-02-19T02:53:31.061Z,21.73
2019-02-19T02:56:01.697Z,26.70
2019-02-19T02:58:32.436Z,24.17
2019-02-19T03:01:03.223Z,24.70
2019-02-19T03:03:34.221Z,22.10
2019-02-19T03:06:30.196Z,22.77
2019-02-19T03:09:00.975Z,24.93
2019-02-19T03:11:33.718Z,22.33
2019-02-19T03:14:04.399Z,25.63
2019-02-19T03:16:35.263Z,20.53
2019-02-19T03:19:05.928Z,24.30
2019-02-19T03:21:36.589Z,29.10
2019-02-19T03:24:07.261Z,30.03
2019-02-19T03:26:38.130Z,24.03
2019-02-19T03:29:10.185Z,23.90
2019-02-19T03:31:40.938Z,22.80
2019-02-19T03:34:11.568Z,26.40
2019-02-19T03:36:43.685Z,21.00
2019-02-19T03:39:14.419Z,27.07
2019-02-19T03:41:46.515Z,24.43
2019-02-19T03:44:17.212Z,24.93
2019-02-19T03:46:48.534Z,21.00
2019-02-19T03:49:19.300Z,22.87
2019-02-19T03:51:51.192Z,24.83
2019-02-19T03:54:21.839Z,25.20
2019-02-19T03:56:52.691Z,20.87
2019-02-19T03:59:23.507Z,21.20
2019-02-19T04:01:54.317Z,26.33
2019-02-19T04:04:24.984Z,28.00
2019-02-19T04:06:55.840Z,26.20
2019-02-19T04:09:26.525Z,24.63
2019-02-19T04:11:57.203Z,21.43
2019-02-19T04:14:27.914Z,21.03
2019-02-19T04:16:58.521Z,24.87
2019-02-19T04:19:29.205Z,25.20
2019-02-19T04:21:59.854Z,24.37
2019-02-19T04:24:30.524Z,30.17
2019-02-19T04:27:01.186Z,22.30
2019-02-19T04:29:31.842Z,21.43
2019-02-19T04:32:02.587Z,22.57
2019-02-19T04:34:33.354Z,22.40
2019-02-19T04:37:04.574Z,22.40
2019-02-19T04:39:36.853Z,32.00
2019-02-19T04:42:07.475Z,65.17
2019-02-19T04:44:38.325Z,40.47
2019-02-19T04:47:09.427Z,37.23
2019-02-19T04:49:40.499Z,49.60
2019-02-19T04:52:12.349Z,123.03
2019-02-19T04:54:43.996Z,303.57
2019-02-19T04:57:15.044Z,267.07
2019-02-19T04:59:45.709Z,192.33
2019-02-19T05:02:16.463Z,58.90
2019-02-19T05:04:47.223Z,30.80
2019-02-19T05:07:18.070Z,121.73
2019-02-19T05:09:50.407Z,105.07
2019-02-19T05:12:21.106Z,141.37
2019-02-19T05:14:52.692Z,31.53
2019-02-19T05:17:34.781Z,46.33
2019-02-19T05:20:16.648Z,42.00
2019-02-19T05:22:59.492Z,34.33
2019-02-19T05:25:41.596Z,39.63
2019-02-19T05:28:12.458Z,34.47
2019-02-19T05:30:44.139Z,34.93
2019-02-19T05:33:14.837Z,34.37
2019-02-19T05:35:45.705Z,50.90
2019-02-19T05:38:16.980Z,33.43
2019-02-19T05:40:48.343Z,43.30
2019-02-19T05:43:19.022Z,35.17
2019-02-19T05:45:51.739Z,28.77
2019-02-19T05:48:22.829Z,28.13
2019-02-19T05:50:53.512Z,26.83
2019-02-19T05:53:24.159Z,25.00
2019-02-19T05:55:54.841Z,22.03
2019-02-19T05:58:25.968Z,24.83
2019-02-19T06:00:56.683Z,26.70
2019-02-19T06:03:27.370Z,24.03
2019-02-19T06:05:58.029Z,31.97
2019-02-19T06:08:28.707Z,28.20
2019-02-19T06:10:59.397Z,40.57
2019-02-19T06:13:30.005Z,39.23
2019-02-19T06:16:00.687Z,42.50
2019-02-19T06:18:31.352Z,31.67
2019-02-19T06:21:02.025Z,22.40
2019-02-19T06:23:32.635Z,27.60
2019-02-19T06:26:03.310Z,24.57
2019-02-19T06:28:34.009Z,23.93
2019-02-19T06:31:04.631Z,25.57
2019-02-19T06:33:36.242Z,22.57
2019-02-19T06:36:06.901Z,24.30
2019-02-19T06:38:37.866Z,24.43
2019-02-19T06:41:08.542Z,26.00
2019-02-19T06:43:39.275Z,22.30
2019-02-19T06:46:09.911Z,24.83
2019-02-19T06:48:41.789Z,22.83
2019-02-19T06:51:12.423Z,26.63
2019-02-19T06:53:43.123Z,31.47
2019-02-19T06:56:13.754Z,24.60
2019-02-19T06:58:44.458Z,24.90
2019-02-19T07:01:15.598Z,21.27
2019-02-19T07:03:56.337Z,22.23
2019-02-19T07:06:27.011Z,26.23
2019-02-19T07:08:57.677Z,20.90
2019-02-19T07:11:29.302Z,27.57
2019-02-19T07:13:59.942Z,21.90
2019-02-19T07:16:30.611Z,27.00
2019-02-19T07:19:01.282Z,23.30
2019-02-19T07:21:31.981Z,24.43
2019-02-19T07:24:04.705Z,23.17
2019-02-19T07:26:34.988Z,26.30
2019-02-19T07:29:05.644Z,23.77
2019-02-19T07:31:36.516Z,21.53
2019-02-19T07:34:07.193Z,20.13
2019-02-19T07:36:38.636Z,23.30
2019-02-19T07:39:09.522Z,26.10
2019-02-19T07:41:40.163Z,20.60
2019-02-19T07:44:10.834Z,19.93
2019-02-19T07:46:41.584Z,20.23
2019-02-19T07:49:12.256Z,21.23
2019-02-19T07:51:43.751Z,21.10
2019-02-19T07:54:14.419Z,24.47
2019-02-19T07:56:45.235Z,22.67
2019-02-19T07:59:15.864Z,20.60
2019-02-19T08:01:46.573Z,22.67
2019-02-19T08:04:17.212Z,19.60
2019-02-19T08:06:48.364Z,24.07
2019-02-19T08:09:18.986Z,20.73
2019-02-19T08:11:49.630Z,21.63
2019-02-19T08:14:20.301Z,20.03
2019-02-19T08:16:50.962Z,24.23
2019-02-19T08:19:21.620Z,20.07
2019-02-19T08:21:53.522Z,25.10
2019-02-19T08:24:24.205Z,21.07
2019-02-19T08:26:55.573Z,18.90
2019-02-19T08:29:26.386Z,22.00
2019-02-19T08:31:57.526Z,18.60
2019-02-19T08:34:28.177Z,18.87
2019-02-19T08:36:59.075Z,22.20
2019-02-19T08:39:29.762Z,17.53
2019-02-19T08:42:00.422Z,21.83
2019-02-19T08:44:31.066Z,25.87
2019-02-19T08:47:01.721Z,20.03
2019-02-19T08:49:32.333Z,22.23
2019-02-19T08:52:03.014Z,20.87
2019-02-19T08:54:33.629Z,16.73
2019-02-19T08:57:04.282Z,23.30
2019-02-19T08:59:34.933Z,17.23
2019-02-19T09:02:05.584Z,16.63
2019-02-19T09:04:36.262Z,16.90
2019-02-19T09:07:06.941Z,20.00
2019-02-19T09:09:37.894Z,18.37
2019-02-19T09:12:08.521Z,19.43
2019-02-19T09:14:39.151Z,17.33
2019-02-19T09:17:09.799Z,19.67
2019-02-19T09:19:40.469Z,15.93
2019-02-19T09:22:11.093Z,19.00
2019-02-19T09:24:42.921Z,15.93
2019-02-19T09:27:13.542Z,19.07
2019-02-19T09:29:44.194Z,17.13
2019-02-19T09:32:14.842Z,19.63
2019-02-19T09:34:45.558Z,23.00
2019-02-19T09:37:16.237Z,20.73
2019-02-19T09:39:47.086Z,17.00
2019-02-19T09:42:17.794Z,19.87
2019-02-19T09:44:48.421Z,18.97
2019-02-19T09:47:19.175Z,19.47
2019-02-19T09:49:49.873Z,18.87
2019-02-19T09:52:20.575Z,17.33
2019-02-19T09:54:51.859Z,19.23
2019-02-19T09:57:22.545Z,18.07
2019-02-19T09:59:53.181Z,21.73
2019-02-19T10:02:23.874Z,18.50
2019-02-19T10:04:54.506Z,20.10
2019-02-19T10:07:25.186Z,22.03
2019-02-19T10:09:55.853Z,20.93
2019-02-19T10:12:26.620Z,21.80
2019-02-19T10:14:57.263Z,23.70
2019-02-19T10:17:27.937Z,21.40
2019-02-19T10:19:58.614Z,24.97
2019-02-19T10:22:29.256Z,22.37
2019-02-19T10:24:59.942Z,27.03
2019-02-19T10:27:30.621Z,25.63
2019-02-19T10:30:01.420Z,24.30
2019-02-19T10:32:32.046Z,24.50
2019-02-19T10:35:02.794Z,25.27
2019-02-19T10:37:33.477Z,26.73
2019-02-19T10:40:04.320Z,27.80
2019-02-19T10:42:34.982Z,27.30
2019-02-19T10:45:05.693Z,25.27
2019-02-19T10:47:36.406Z,27.37
2019-02-19T10:50:07.753Z,28.00
2019-02-19T10:52:38.411Z,25.53
2019-02-19T10:55:09.146Z,25.20
2019-02-19T10:57:40.743Z,43.80
2019-02-19T11:00:16.614Z,34.70
2019-02-19T11:02:47.424Z,31.07
2019-02-19T11:05:18.119Z,29.60
2019-02-19T11:07:48.810Z,29.57
2019-02-19T11:10:19.443Z,32.47
2019-02-19T11:12:51.533Z,31.00
2019-02-19T11:15:22.345Z,32.33
2019-02-19T11:17:53.102Z,31.50
2019-02-19T11:20:23.844Z,32.93
2019-02-19T11:22:54.697Z,33.23
2019-02-19T11:25:25.389Z,29.33
2019-02-19T11:27:56.575Z,27.40
2019-02-19T11:30:27.275Z,27.17
2019-02-19T11:32:57.956Z,26.40
2019-02-19T11:35:28.612Z,26.93
2019-02-19T11:37:59.269Z,30.30
2019-02-19T11:40:29.942Z,24.40
2019-02-19T11:43:00.602Z,28.57
2019-02-19T11:45:31.291Z,26.60
2019-02-19T11:48:01.972Z,28.90
2019-02-19T11:50:32.683Z,24.53
2019-02-19T11:53:03.321Z,28.00
2019-02-19T11:55:33.993Z,26.60
2019-02-19T11:58:04.662Z,33.60
2019-02-19T12:00:38.501Z,28.53
2019-02-19T12:03:09.155Z,25.50
2019-02-19T12:05:39.811Z,26.43
2019-02-19T12:08:10.462Z,24.93
2019-02-19T12:10:41.479Z,27.47
2019-02-19T12:13:12.149Z,28.60
2019-02-19T12:15:43.412Z,25.47
2019-02-19T12:18:14.136Z,24.27
2019-02-19T12:20:44.824Z,27.47
2019-02-19T12:23:15.696Z,25.43
2019-02-19T12:25:46.439Z,26.83
2019-02-19T12:28:17.374Z,26.87
2019-02-19T12:30:48.670Z,25.60
2019-02-19T12:33:19.664Z,27.80
2019-02-19T12:35:50.349Z,26.60
2019-02-19T12:38:21.957Z,31.20
2019-02-19T12:40:52.646Z,28.90
2019-02-19T12:43:23.338Z,26.37
2019-02-19T12:45:54.243Z,25.30
2019-02-19T12:48:24.930Z,28.47
2019-02-19T12:50:55.761Z,29.43
2019-02-19T12:53:26.479Z,27.67
2019-02-19T12:55:57.183Z,22.57
2019-02-19T12:58:27.913Z,24.13
2019-02-19T13:00:58.756Z,28.97
2019-02-19T13:03:29.449Z,22.23
2019-02-19T13:06:00.205Z,29.53
2019-02-19T13:08:30.941Z,26.87
2019-02-19T13:11:01.625Z,25.00
2019-02-19T13:13:32.265Z,22.63
2019-02-19T13:16:02.977Z,23.50
2019-02-19T13:18:33.654Z,20.90
2019-02-19T13:21:04.328Z,22.93
2019-02-19T13:23:35.084Z,22.47
2019-02-19T13:26:05.699Z,21.37
2019-02-19T13:28:36.395Z,27.70
2019-02-19T13:31:07.098Z,23.83
2019-02-19T13:33:38.566Z,20.27
2019-02-19T13:36:11.180Z,23.97
2019-02-19T13:38:41.924Z,25.87
2019-02-19T13:41:12.820Z,20.70
2019-02-19T13:43:43.925Z,22.60
2019-02-19T13:46:14.602Z,27.07
2019-02-19T13:48:45.369Z,24.50
2019-02-19T13:51:16.071Z,24.53
2019-02-19T13:53:57.078Z,21.70
2019-02-19T13:56:27.871Z,22.37
2019-02-19T13:58:58.619Z,25.60
2019-02-19T14:01:29.533Z,23.10
2019-02-19T14:04:00.212Z,23.43
2019-02-19T14:06:31.023Z,23.17
2019-02-19T14:09:01.737Z,20.03
2019-02-19T14:11:33.209Z,21.73
2019-02-19T14:14:22.986Z,20.90
2019-02-19T14:16:59.920Z,20.70
2019-02-19T14:19:56.488Z,24.67
2019-02-19T14:22:40.771Z,22.83
2019-02-19T14:25:29.285Z,25.20
2019-02-19T14:28:18.892Z,23.17
2019-02-19T14:31:20.706Z,22.37
2019-02-19T14:34:13.527Z,20.70
2019-02-19T14:37:03.595Z,24.37
2019-02-19T14:39:56.058Z,19.57
2019-02-19T14:42:47.281Z,21.23
2019-02-19T14:45:36.848Z,23.87
2019-02-19T14:48:25.552Z,22.17
2019-02-19T14:51:22.669Z,19.37
2019-02-19T14:54:06.291Z,22.80
2019-02-19T14:56:54.917Z,24.40
2019-02-19T14:59:44.651Z,22.53
2019-02-19T15:02:28.340Z,21.37
2019-02-19T15:05:24.069Z,22.33
2019-02-19T15:08:12.255Z,21.53
2019-02-19T15:11:10.945Z,23.10
2019-02-19T15:13:59.450Z,23.27
2019-02-19T15:16:57.980Z,24.87
2019-02-19T15:19:47.199Z,21.33
2019-02-19T15:22:36.732Z,23.70
2019-02-19T15:25:26.194Z,29.30
2019-02-19T15:28:21.829Z,18.53
2019-02-19T15:31:17.638Z,20.47
2019-02-19T15:34:05.889Z,20.07
2019-02-19T15:36:54.513Z,23.60
2019-02-19T15:39:47.317Z,21.93
2019-02-19T15:42:35.619Z,23.87
2019-02-19T15:45:25.391Z,21.67
2019-02-19T15:48:17.783Z,18.23
2019-02-19T15:51:19.722Z,22.57
2019-02-19T15:54:09.242Z,24.93
2019-02-19T15:56:56.208Z,19.50
2019-02-19T15:59:52.177Z,18.03
2019-02-19T16:02:29.179Z,19.47
2019-02-19T16:05:17.547Z,21.13
2019-02-19T16:08:13.128Z,21.30
2019-02-19T16:11:11.545Z,21.40
2019-02-19T16:14:01.097Z,18.47
2019-02-19T16:16:51.091Z,17.60
2019-02-19T16:19:32.535Z,19.83
2019-02-19T16:22:12.644Z,13.83
2019-02-19T16:25:02.586Z,22.43
2019-02-19T16:27:53.054Z,15.13
2019-02-19T16:30:36.092Z,18.50
2019-02-19T16:33:25.814Z,18.97
2019-02-19T16:36:05.637Z,15.40
2019-02-19T16:38:48.546Z,21.73
2019-02-19T16:41:47.759Z,16.60
2019-02-19T16:44:43.157Z,15.73
2019-02-19T16:47:36.014Z,21.97
2019-02-19T16:50:21.777Z,17.50
2019-02-19T16:53:14.288Z,16.47
2019-02-19T16:55:56.176Z,17.70
2019-02-19T16:58:42.264Z,16.93
2019-02-19T17:01:23.098Z,17.97
2019-02-19T17:04:13.503Z,16.30
2019-02-19T17:06:54.778Z,15.57
2019-02-19T17:09:50.570Z,16.70
2019-02-19T17:12:55.236Z,17.90
2019-02-19T17:15:43.399Z,13.83
2019-02-19T17:18:36.403Z,16.63
2019-02-19T17:21:32.414Z,18.37
2019-02-19T17:24:22.388Z,13.03
2019-02-19T17:27:04.299Z,14.63
2019-02-19T17:29:59.793Z,15.87
2019-02-19T17:32:53.132Z,15.67
2019-02-19T17:35:44.065Z,16.73
2019-02-19T17:38:28.538Z,17.43
2019-02-19T17:41:24.764Z,14.67
2019-02-19T17:44:17.505Z,19.23
2019-02-19T17:47:09.867Z,15.40
2019-02-19T17:49:58.854Z,18.83
2019-02-19T17:52:45.661Z,14.53
2019-02-19T17:55:33.989Z,15.80
2019-02-19T17:58:35.627Z,19.63
2019-02-19T18:01:11.097Z,15.17
2019-02-19T18:03:49.566Z,18.93
2019-02-19T18:06:39.653Z,18.07
2019-02-19T18:09:17.979Z,13.63
2019-02-19T18:12:03.110Z,22.40
2019-02-19T18:15:04.971Z,15.97
2019-02-19T18:17:54.672Z,16.67
2019-02-19T18:20:25.402Z,17.83
2019-02-19T18:22:56.105Z,15.33
2019-02-19T18:25:26.922Z,16.57
2019-02-19T18:27:58.428Z,19.20
2019-02-19T18:30:29.624Z,19.03
2019-02-19T18:33:00.284Z,18.30
2019-02-19T18:35:30.989Z,14.53
2019-02-19T18:38:01.676Z,15.60
2019-02-19T18:40:33.918Z,15.90
2019-02-19T18:43:11.341Z,16.13
2019-02-19T18:45:50.880Z,16.10
2019-02-19T18:48:21.799Z,16.13
2019-02-19T18:50:58.087Z,51.10
2019-02-19T18:53:24.948Z,18.40
2019-02-19T18:55:55.629Z,16.83
2019-02-19T18:58:27.308Z,16.60
2019-02-19T19:00:58.514Z,16.70
2019-02-19T19:03:29.164Z,22.90
2019-02-19T19:06:00.326Z,17.23
2019-02-19T19:08:30.969Z,18.80
2019-02-19T19:11:01.636Z,22.80
2019-02-19T19:13:32.269Z,25.67
2019-02-19T19:16:03.992Z,23.30
2019-02-19T19:18:34.623Z,27.33
2019-02-19T19:21:12.849Z,20.23
2019-02-19T19:23:45.774Z,17.17
2019-02-19T19:26:16.381Z,13.33
2019-02-19T19:28:47.525Z,13.37
2019-02-19T19:31:18.350Z,10.03
2019-02-19T19:33:49.122Z,13.43
2019-02-19T19:36:19.809Z,11.70
2019-02-19T19:38:50.466Z,13.27
2019-02-19T19:41:21.231Z,11.37
2019-02-19T19:43:52.062Z,9.87
2019-02-19T19:46:22.739Z,13.43
2019-02-19T19:48:54.818Z,9.53
2019-02-19T19:51:26.496Z,11.07
2019-02-19T19:53:57.293Z,9.77
2019-02-19T19:56:29.019Z,11.80
2019-02-19T19:58:59.677Z,9.87
2019-02-19T20:01:30.552Z,11.40
2019-02-19T20:04:01.311Z,9.40
2019-02-19T20:06:32.003Z,15.40
2019-02-19T20:09:02.684Z,6.03
2019-02-19T20:11:34.462Z,10.90
2019-02-19T20:14:05.165Z,8.10
2019-02-19T20:16:36.551Z,8.97
2019-02-19T20:19:07.375Z,9.63
2019-02-19T20:21:38.590Z,8.40
2019-02-19T20:24:09.241Z,9.70
2019-02-19T20:26:39.962Z,8.37
2019-02-19T20:29:10.609Z,9.53
2019-02-19T20:31:41.375Z,8.77
2019-02-19T20:34:14.131Z,8.17
2019-02-19T20:36:44.964Z,10.80
2019-02-19T20:39:15.603Z,11.50
2019-02-19T20:41:48.430Z,10.17
2019-02-19T20:44:19.061Z,13.33
2019-02-19T20:46:50.306Z,10.43
2019-02-19T20:49:22.979Z,12.57
2019-02-19T20:51:54.951Z,11.70
2019-02-19T20:54:26.597Z,6.53
2019-02-19T20:56:59.518Z,9.57
2019-02-19T20:59:30.208Z,5.13
2019-02-19T21:02:00.956Z,9.57
2019-02-19T21:04:31.616Z,6.53
2019-02-19T21:07:03.714Z,7.83
2019-02-19T21:09:43.195Z,6.97
2019-02-19T21:12:06.994Z,6.37
2019-02-19T21:14:39.298Z,4.87
2019-02-19T21:17:11.759Z,4.43
2019-02-19T21:19:42.571Z,5.20
2019-02-19T21:22:14.457Z,4.63
2019-02-19T21:24:45.645Z,8.43
2019-02-19T21:27:16.322Z,6.20
2019-02-19T21:29:47.066Z,4.73
2019-02-19T21:32:18.348Z,6.90
2019-02-19T21:34:49.312Z,5.63
2019-02-19T21:37:20.029Z,7.57
2019-02-19T21:39:51.919Z,8.10
2019-02-19T21:42:22.641Z,6.60
2019-02-19T21:44:54.234Z,6.40
2019-02-19T21:47:24.912Z,5.17
2019-02-19T21:49:55.598Z,5.53
2019-02-19T21:52:28.024Z,6.77
2019-02-19T21:54:59.699Z,7.67
2019-02-19T21:57:30.312Z,6.60
2019-02-19T22:00:00.950Z,6.27
2019-02-19T22:02:31.764Z,5.97
2019-02-19T22:05:02.513Z,7.40
2019-02-19T22:07:33.855Z,4.73
2019-02-19T22:10:05.280Z,5.90
2019-02-19T22:12:36.451Z,6.57
2019-02-19T22:15:07.833Z,5.17
2019-02-19T22:17:38.636Z,5.57
2019-02-19T22:20:19.450Z,8.40
2019-02-19T22:22:50.312Z,7.47
2019-02-19T22:25:21.054Z,6.43
2019-02-19T22:27:52.866Z,6.83
2019-02-19T22:30:23.533Z,5.57
2019-02-19T22:32:57.197Z,8.73
2019-02-19T22:35:28.359Z,7.63
2019-02-19T22:37:59.217Z,7.13
2019-02-19T22:40:29.871Z,8.00
2019-02-19T22:43:02.534Z,8.10
2019-02-19T22:45:33.825Z,8.73
2019-02-19T22:48:05.386Z,8.63
2019-02-19T22:50:36.040Z,6.03
2019-02-19T22:53:25.783Z,6.57
2019-02-19T22:56:02.776Z,6.23
2019-02-19T22:58:33.760Z,7.70
2019-02-19T23:01:14.199Z,5.80
2019-02-19T23:03:45.096Z,8.10
2019-02-19T23:06:15.707Z,8.13
2019-02-19T23:08:46.449Z,8.87
2019-02-19T23:11:17.171Z,7.77
2019-02-19T23:13:47.792Z,8.53
2019-02-19T23:16:18.435Z,5.53
2019-02-19T23:18:49.094Z,5.77
2019-02-19T23:21:19.744Z,10.50
2019-02-19T23:23:50.377Z,7.83
2019-02-19T23:26:21.054Z,8.40
2019-02-19T23:28:51.693Z,6.83
2019-02-19T23:31:22.592Z,7.23
2019-02-19T23:33:53.958Z,7.60
2019-02-19T23:36:35.608Z,8.03
2019-02-19T23:39:08.408Z,9.90
2019-02-19T23:41:39.123Z,6.53
2019-02-19T23:44:09.818Z,9.90
2019-02-19T23:46:40.584Z,8.70
2019-02-19T23:49:11.342Z,9.30
2019-02-19T23:51:43.425Z,9.17
2019-02-19T23:54:14.096Z,8.23
2019-02-19T23:56:44.730Z,12.20
2019-02-19T23:59:15.391Z,9.27
